createdAt,value
2022-10-30T00:04:39.780Z,64.48
2022-10-30T00:09:41.718Z,64.72
2022-10-30T00:14:43.587Z,64.55
2022-10-30T00:19:45.563Z,63.34
2022-10-30T00:24:47.439Z,63.00
2022-10-30T00:29:49.271Z,62.86
2022-10-30T00:34:51.596Z,62.28
2022-10-30T00:39:53.536Z,61.90
2022-10-30T00:44:55.648Z,62.82
2022-10-30T00:50:04.003Z,61.91
2022-10-30T00:55:13.931Z,62.51
2022-10-30T01:00:17.138Z,61.73
2022-10-30T01:05:21.754Z,61.83
2022-10-30T01:10:24.308Z,61.43
2022-10-30T01:15:36.538Z,62.06
2022-10-30T01:21:00.900Z,61.50
2022-10-30T01:26:34.240Z,61.70
2022-10-30T01:31:47.251Z,61.69
2022-10-30T01:37:01.127Z,60.98
2022-10-30T01:42:40.748Z,61.58
2022-10-30T01:48:05.980Z,61.69
2022-10-30T01:53:47.344Z,62.00
2022-10-30T01:59:09.164Z,61.86
2022-10-30T02:04:13.270Z,61.86
2022-10-30T02:09:16.936Z,61.72
2022-10-30T02:14:34.575Z,62.91
2022-10-30T02:19:38.982Z,63.27
2022-10-30T02:24:40.983Z,63.69
2022-10-30T02:29:42.863Z,63.73
2022-10-30T02:34:44.863Z,63.18
2022-10-30T02:39:48.626Z,62.97
2022-10-30T02:44:50.535Z,62.68
2022-10-30T02:49:54.743Z,62.12
2022-10-30T02:54:56.600Z,62.10
2022-10-30T02:59:58.503Z,62.24
2022-10-30T03:05:00.451Z,62.20
2022-10-30T03:10:02.354Z,62.15
2022-10-30T03:15:05.390Z,62.05
2022-10-30T03:20:07.884Z,61.82
2022-10-30T03:25:10.166Z,62.01
2022-10-30T03:30:12.289Z,62.82
2022-10-30T03:35:14.511Z,62.45
2022-10-30T03:40:16.465Z,62.78
2022-10-30T03:45:18.355Z,62.50
2022-10-30T03:50:20.394Z,64.51
2022-10-30T03:55:23.592Z,65.33
2022-10-30T04:00:25.849Z,66.04
2022-10-30T04:05:33.618Z,66.37
2022-10-30T04:10:38.076Z,64.95
2022-10-30T04:15:44.046Z,64.63
2022-10-30T04:20:47.234Z,64.32
2022-10-30T04:25:50.217Z,63.70
2022-10-30T04:30:54.763Z,63.47
2022-10-30T04:35:57.164Z,63.76
2022-10-30T04:40:59.086Z,63.05
2022-10-30T04:46:15.224Z,63.04
2022-10-30T04:51:17.284Z,62.93
2022-10-30T04:56:20.009Z,62.95
2022-10-30T05:01:23.236Z,62.64
2022-10-30T05:06:27.567Z,62.73
2022-10-30T05:11:29.389Z,62.57
2022-10-30T05:16:31.425Z,62.47
2022-10-30T05:21:34.949Z,62.69
2022-10-30T05:26:36.998Z,63.25
2022-10-30T05:31:39.018Z,62.91
2022-10-30T05:37:19.104Z,62.38
2022-10-30T05:42:21.328Z,62.67
2022-10-30T05:47:23.388Z,62.19
2022-10-30T05:52:29.291Z,61.79
2022-10-30T05:57:33.725Z,62.30
2022-10-30T06:02:36.245Z,62.27
2022-10-30T06:07:38.200Z,63.97
2022-10-30T06:12:40.177Z,62.73
2022-10-30T06:18:05.063Z,61.38
2022-10-30T06:23:15.275Z,61.15
2022-10-30T06:28:24.261Z,60.77
2022-10-30T06:33:27.198Z,60.24
2022-10-30T06:38:30.215Z,59.81
2022-10-30T06:43:32.635Z,58.43
2022-10-30T06:48:39.673Z,57.44
2022-10-30T06:53:41.534Z,56.19
2022-10-30T06:59:03.674Z,55.33
2022-10-30T07:04:10.879Z,54.13
2022-10-30T07:09:12.852Z,53.31
2022-10-30T07:14:15.391Z,52.15
2022-10-30T07:19:35.076Z,50.53
2022-10-30T07:24:38.159Z,48.65
2022-10-30T07:29:58.984Z,48.41
2022-10-30T07:35:09.563Z,46.91
2022-10-30T07:40:38.863Z,46.10
2022-10-30T07:45:45.919Z,47.83
2022-10-30T07:50:56.820Z,49.21
2022-10-30T07:55:59.062Z,45.42
2022-10-30T08:01:24.009Z,43.82
2022-10-30T08:06:27.416Z,43.30
2022-10-30T08:11:29.674Z,41.55
2022-10-30T08:16:33.408Z,39.94
2022-10-30T08:21:35.339Z,36.41
2022-10-30T08:26:44.351Z,32.51
2022-10-30T08:31:51.140Z,34.02
2022-10-30T08:37:00.093Z,30.84
2022-10-30T08:42:02.132Z,30.80
2022-10-30T08:47:10.134Z,25.90
2022-10-30T08:52:13.572Z,27.60
2022-10-30T08:57:15.500Z,27.07
2022-10-30T09:02:17.524Z,22.91
2022-10-30T09:08:01.713Z,23.95
2022-10-30T09:13:22.908Z,20.34
2022-10-30T09:18:24.862Z,19.63
2022-10-30T09:23:27.038Z,14.06
2022-10-30T09:28:45.838Z,13.53
2022-10-30T09:34:08.368Z,9.12
2022-10-30T09:39:20.104Z,11.50
2022-10-30T09:44:31.493Z,9.01
2022-10-30T09:49:41.164Z,7.60
2022-10-30T09:54:55.586Z,8.34
2022-10-30T10:00:22.750Z,8.03
2022-10-30T10:05:43.949Z,9.85
2022-10-30T10:11:21.726Z,10.83
2022-10-30T10:16:28.430Z,7.74
2022-10-30T10:21:35.087Z,6.25
2022-10-30T10:27:00.367Z,4.41
2022-10-30T10:32:06.833Z,4.57
2022-10-30T10:37:32.620Z,4.96
2022-10-30T10:43:05.186Z,4.04
2022-10-30T10:48:34.643Z,2.21
2022-10-30T10:53:46.820Z,2.46
2022-10-30T10:58:53.791Z,0.03
2022-10-30T11:04:05.070Z,0.33
2022-10-30T11:09:22.170Z,-1.00
2022-10-30T11:14:30.587Z,-1.51
2022-10-30T11:19:32.899Z,-0.54
2022-10-30T11:24:36.134Z,-1.91
2022-10-30T11:29:37.980Z,-0.68
2022-10-30T11:34:39.925Z,1.80
2022-10-30T11:39:42.067Z,2.41
2022-10-30T11:44:51.401Z,1.42
2022-10-30T11:49:56.757Z,2.82
2022-10-30T11:55:02.774Z,0.74
2022-10-30T12:00:13.967Z,0.74
2022-10-30T12:05:28.011Z,0.97
2022-10-30T12:10:30.830Z,-0.35
2022-10-30T12:15:37.407Z,-1.58
2022-10-30T12:20:39.408Z,-3.49
2022-10-30T12:25:47.430Z,118.50
2022-10-30T12:30:58.912Z,117.95
2022-10-30T12:36:05.520Z,117.92
2022-10-30T12:41:07.607Z,116.41
2022-10-30T12:46:31.111Z,117.19
2022-10-30T12:52:00.294Z,118.57
2022-10-30T12:57:14.887Z,118.25
2022-10-30T13:02:27.428Z,-5.47
2022-10-30T13:07:40.111Z,-5.88
2022-10-30T13:12:46.351Z,-5.22
2022-10-30T13:17:49.371Z,-5.18
2022-10-30T13:23:10.724Z,-5.92
2022-10-30T13:28:21.923Z,-4.63
2022-10-30T13:33:42.056Z,-5.28
2022-10-30T13:38:58.121Z,-4.79
2022-10-30T13:44:05.777Z,-3.96
2022-10-30T13:49:13.308Z,-4.52
2022-10-30T13:54:26.582Z,-4.64
2022-10-30T13:59:57.149Z,-3.55
2022-10-30T14:05:22.853Z,-3.39
2022-10-30T14:10:45.307Z,-4.40
2022-10-30T14:15:47.346Z,-4.37
2022-10-30T14:20:54.606Z,-4.63
2022-10-30T14:26:03.028Z,-3.70
2022-10-30T14:31:19.703Z,-3.64
2022-10-30T14:36:21.551Z,-3.04
2022-10-30T14:41:48.555Z,-2.42
2022-10-30T14:47:02.896Z,-1.95
2022-10-30T14:52:16.117Z,-1.44
2022-10-30T14:57:51.368Z,-0.30
2022-10-30T15:03:11.935Z,2.89
2022-10-30T15:08:22.706Z,1.96
2022-10-30T15:13:24.662Z,2.64
2022-10-30T15:18:30.538Z,5.77
2022-10-30T15:23:35.711Z,6.71
2022-10-30T15:28:38.747Z,6.71
2022-10-30T15:33:41.047Z,8.03
2022-10-30T15:38:42.916Z,9.22
2022-10-30T15:43:44.985Z,10.76
2022-10-30T15:48:48.023Z,11.48
2022-10-30T15:53:51.203Z,11.64
2022-10-30T15:58:58.514Z,12.30
2022-10-30T16:04:00.983Z,12.71
2022-10-30T16:09:04.462Z,12.92
2022-10-30T16:14:09.047Z,12.49
2022-10-30T16:19:26.344Z,15.79
2022-10-30T16:24:33.934Z,15.09
2022-10-30T16:29:36.240Z,15.68
2022-10-30T16:34:41.071Z,17.44
2022-10-30T16:39:43.846Z,17.61
2022-10-30T16:44:46.316Z,16.31
2022-10-30T16:49:52.129Z,17.04
2022-10-30T16:55:01.842Z,18.23
2022-10-30T17:00:05.597Z,19.97
2022-10-30T17:05:12.289Z,20.89
2022-10-30T17:10:44.469Z,21.64
2022-10-30T17:15:46.971Z,22.18
2022-10-30T17:21:11.702Z,23.54
2022-10-30T17:26:14.611Z,24.22
2022-10-30T17:31:22.344Z,23.88
2022-10-30T17:36:24.221Z,24.73
2022-10-30T17:41:26.193Z,25.14
2022-10-30T17:46:28.408Z,25.38
2022-10-30T17:51:32.478Z,26.42
2022-10-30T17:56:34.781Z,27.52
2022-10-30T18:01:36.849Z,27.65
2022-10-30T18:06:38.747Z,29.64
2022-10-30T18:11:40.660Z,30.42
2022-10-30T18:16:42.469Z,30.05
2022-10-30T18:21:48.341Z,30.20
2022-10-30T18:26:50.274Z,29.97
2022-10-30T18:31:52.171Z,30.29
2022-10-30T18:36:54.830Z,30.83
2022-10-30T18:41:56.826Z,30.75
2022-10-30T18:47:02.707Z,30.90
2022-10-30T18:52:05.436Z,32.49
2022-10-30T18:57:07.404Z,32.68
2022-10-30T19:02:23.245Z,31.71
2022-10-30T19:07:25.178Z,31.78
2022-10-30T19:12:27.326Z,32.79
2022-10-30T19:17:29.504Z,32.77
2022-10-30T19:22:31.541Z,35.31
2022-10-30T19:27:33.398Z,33.83
2022-10-30T19:32:35.225Z,34.63
2022-10-30T19:37:37.621Z,34.71
2022-10-30T19:42:39.422Z,34.68
2022-10-30T19:53:17.814Z,34.81
2022-10-30T19:58:22.282Z,35.26
2022-10-30T20:03:27.996Z,36.85
2022-10-30T20:08:29.982Z,37.28
2022-10-30T20:13:33.516Z,37.41
2022-10-30T20:18:36.380Z,38.46
2022-10-30T20:23:38.855Z,38.31
2022-10-30T20:28:42.356Z,37.93
2022-10-30T20:33:44.180Z,38.73
2022-10-30T20:38:46.084Z,39.27
2022-10-30T20:43:50.312Z,41.03
2022-10-30T20:48:52.135Z,38.69
2022-10-30T20:53:54.008Z,39.27
2022-10-30T20:58:56.059Z,38.50
2022-10-30T21:04:01.539Z,38.36
2022-10-30T21:09:04.497Z,39.35
2022-10-30T21:14:06.371Z,39.48
2022-10-30T21:19:08.419Z,40.59
2022-10-30T21:24:10.355Z,40.88
2022-10-30T21:29:12.349Z,39.92
2022-10-30T21:34:14.428Z,39.30
2022-10-30T21:39:16.330Z,38.69
2022-10-30T21:44:18.227Z,38.23
2022-10-30T21:49:20.177Z,39.06
2022-10-30T21:54:22.172Z,41.97
2022-10-30T21:59:24.248Z,41.52
2022-10-30T22:04:26.112Z,40.28
2022-10-30T22:09:28.055Z,41.62
2022-10-30T22:14:29.909Z,42.03
2022-10-30T22:19:31.781Z,40.66
2022-10-30T22:24:33.770Z,39.94
2022-10-30T22:29:35.625Z,39.92
2022-10-30T22:34:37.846Z,40.55
2022-10-30T22:39:39.701Z,40.29
2022-10-30T22:44:41.746Z,39.97
2022-10-30T22:49:43.599Z,41.83
2022-10-30T22:54:45.424Z,40.37
2022-10-30T22:59:47.680Z,38.20
2022-10-30T23:04:49.629Z,39.94
2022-10-30T23:09:52.075Z,41.24
2022-10-30T23:14:54.054Z,40.17
2022-10-30T23:19:55.877Z,41.97
2022-10-30T23:24:57.736Z,41.49
2022-10-30T23:29:59.750Z,41.69
2022-10-30T23:35:01.615Z,41.87
2022-10-30T23:40:03.740Z,41.65
2022-10-30T23:45:06.509Z,41.62
2022-10-30T23:50:08.763Z,43.34
2022-10-30T23:55:10.631Z,42.26
